Karan — A8NB3 — position and weather

sailwx.info

Track history (hours):
 
Tides and Currents Weather Stations Pressure Air Temp Water Temp Dewpoint Dewpoint Depression Visibility Wind Speed Wind Dir Waves Ship Positions

Karan

Last reported at 2015-Jan-12 19:19 UTC. Time now 2015-Jan-30 07:58 UTC.
Position S 29°28' E 032°37'.
Warning: this ship's position is 17 days out of date.

Length 333 m; draft 18 m.

Type: Ship (hazmat cat B). MMSI: 636013451.

Date/timePositionNaut miles runAvg speedWind from/ knotsBaromVisibWave heightAir tempDewpointWater temp
2015-Jan-12 19:19S 29°28' E 032°37'6112.7
2015-Jan-12 14:33S 30°13' E 031°50'2613.0
2015-Jan-12 12:33S 30°33' E 031°30'1312.9
2015-Jan-12 11:33S 30°42' E 031°20'1212.4
2015-Jan-12 10:33S 30°51' E 031°11'1212.5
2015-Jan-12 09:33S 31°01' E 031°01'1111.4
2015-Jan-12 08:33S 31°10' E 030°52'1111.1
2015-Jan-12 07:32S 31°18' E 030°43'1111.1
2015-Jan-12 06:33S 31°26' E 030°35'  
2015-Jan-09 16:24S 34°08' E 018°01'1010.8
2015-Jan-09 15:29S 33°58' E 018°05'  
Track history (hours):
 
Tides and Currents Weather Stations Pressure Air Temp Water Temp Dewpoint Dewpoint Depression Visibility Wind Speed Wind Dir Waves Ship Positions

Karan

Last reported at 2015-Jan-12 19:19 UTC. Time now 2015-Jan-30 07:58 UTC.
Position S 29°28' E 032°37'.
Warning: this ship's position is 17 days out of date.

Length 333 m; draft 18 m.

Type: Ship (hazmat cat B). MMSI: 636013451.

Date/timePositionNaut miles runAvg speedWind from/ knotsBaromVisibWave heightAir tempDewpointWater temp
2015-Jan-12 19:19S 29°28' E 032°37'6112.7
2015-Jan-12 14:33S 30°13' E 031°50'2613.0
2015-Jan-12 12:33S 30°33' E 031°30'1312.9
2015-Jan-12 11:33S 30°42' E 031°20'1212.4
2015-Jan-12 10:33S 30°51' E 031°11'1212.5
2015-Jan-12 09:33S 31°01' E 031°01'1111.4
2015-Jan-12 08:33S 31°10' E 030°52'1111.1
2015-Jan-12 07:32S 31°18' E 030°43'1111.1
2015-Jan-12 06:33S 31°26' E 030°35'  
2015-Jan-09 16:24S 34°08' E 018°01'1010.8
2015-Jan-09 15:29S 33°58' E 018°05'  

Dump ship's entire track history